This is the latest recevied weather packets stored in our database for station/object GJ7DNI-13. If no packets are shown the sender has not sent any weather packets the latest 10 day(s).
| Time | Temp. | Humidity | Pressure | Rain* | Wind** | Luminosity | Snow |
|---|---|---|---|---|---|---|---|
| 1777899599 | 15° C | 73% | 1012.1 hPa | 0 mm | - | 144 W/m² | - |
| 1777899299 | 15° C | 73% | 1012.1 hPa | 0 mm | - | 130 W/m² | - |
| 1777898999 | 15° C | 72% | 1012.1 hPa | 0 mm | - | 132 W/m² | - |
| 1777898699 | 15° C | 72% | 1012.1 hPa | 0 mm | - | 176 W/m² | - |
| 1777898399 | 15.56° C | 71% | 1012.1 hPa | 0 mm | - | 207 W/m² | - |
| 1777898099 | 15.56° C | 69% | 1012.1 hPa | 0 mm | - | 269 W/m² | - |
| 1777897799 | 15.56° C | 68% | 1012.1 hPa | 0 mm | - | 388 W/m² | - |
| 1777897499 | 16.67° C | 64% | 1012.1 hPa | 0 mm | - | 580 W/m² | - |
| 1777897199 | 18.33° C | 62% | 1012 hPa | 0 mm | - | 582 W/m² | - |
| 1777896899 | 18.33° C | 62% | 1012.1 hPa | 0 mm | - | 568 W/m² | - |
| 1777896599 | 18.89° C | 61% | 1012.1 hPa | 0 mm | - | 369 W/m² | - |
| 1777896299 | 18.33° C | 62% | 1012.1 hPa | 0 mm | - | 487 W/m² | - |
| 1777895999 | 18.33° C | 62% | 1012.1 hPa | 0 mm | - | 359 W/m² | - |
| 1777895699 | 17.78° C | 65% | 1012.1 hPa | 0 mm | - | 626 W/m² | - |
| 1777895399 | 17.22° C | 68% | 1012.2 hPa | 0 mm | - | 520 W/m² | - |
| 1777895099 | 16.67° C | 68% | 1012.2 hPa | 0 mm | - | 250 W/m² | - |
| 1777894848 | 16.67° C | 69% | 1012.3 hPa | 0 mm | - | 248 W/m² | - |
| 1777894799 | 16.67° C | 69% | 1012.3 hPa | 0 mm | - | 248 W/m² | - |
| 1777894499 | 16.67° C | 70% | 1012.3 hPa | 0 mm | - | 236 W/m² | - |
| 1777894199 | 16.11° C | 70% | 1012.4 hPa | 0 mm | - | 250 W/m² | - |
| 1777893899 | 16.67° C | 67% | 1012.4 hPa | 0 mm | - | 246 W/m² | - |
| 1777893748 | 12.22° C | 86% | 1010.7 hPa | 0 mm | - | 0 W/m² | - |
| 1777893745 | 12.22° C | 86% | 1010.8 hPa | 0 mm | - | 0 W/m² | - |
| 1777893599 | 17.22° C | 65% | 1012.4 hPa | 0 mm | - | 236 W/m² | - |
| 1777893299 | 17.78° C | 66% | 1012.4 hPa | 0 mm | - | 229 W/m² | - |
* Rain latest hour (hover to see other rain measurements)
** Current wind speed in m/s (hover to see current wind gust speed)